• Join FlightAware (Why Join?)
  • Login
  • US Flag 
04:20AM EDT


 

Airport Tracker/Info


-or-


 

Live Flight TrackerFlight Track Log ✈ EGF3650 ✈ 10-Apr-2013 ✈ KLAX - KIAH

Flight Track Log - Related Links

Times and Time Zones

All times are in EDT time to prevent confusion due to time zone crossing. See the EGF3650 flight status page for this flight to view local times or setup timezone preferences in your user account.

Time Position Orientation Groundspeed Altitude Reporting Facility
EDT Latitude Longitude Course Direction KTS MPH feet Rate Location/Type
12:01AM 33.9283 -118.4617 90° East 217 250 2,900  Level Los Angeles Center
12:02AM 33.8819 -118.5267 229° Southwest 255 293 5,600 2,580 Climbing Los Angeles Center
12:03AM 33.8164 -118.5558 200° South 284 327 8,200 2,340 Climbing Los Angeles Center
12:04AM 33.7364 -118.5317 166° South 300 345 10,500 2,340 Climbing Los Angeles Center
12:05AM 33.6333 -118.3112 90° East  Level FlightAware Approximate
12:05AM 33.6697 -118.4358 130° Southeast 339 390 13,000  Level Los Angeles Center
12:06AM 33.6333 -118.1498 90° East  Level FlightAware Approximate
12:07AM 33.6334 -118.0004 90° East  Level FlightAware Approximate
12:07AM 33.6436 -118.3203 105° East 368 423 14,600  Level Los Angeles Center
12:08AM 33.6439 -118.1911 90° East 401 461 15,600 1,260 Climbing Los Angeles Center
12:09AM 33.6436 -118.0547 90° East 412 474 17,200 1,320 Climbing Los Angeles Center
12:10AM 33.6431 -117.9111 90° East 428 493 18,400 1,440 Climbing Los Angeles Center
12:11AM 33.6422 -117.7344 90° East 442 509 20,200 1,440 Climbing Los Angeles Center
12:12AM 33.6414 -117.5842 90° East 451 519 21,400 1,200 Climbing Los Angeles Center
12:13AM 33.6406 -117.4317 90° East 458 527 22,700 1,260 Climbing Los Angeles Center
12:14AM 33.6400 -117.2767 90° East 463 533 24,000 1,200 Climbing Los Angeles Center
12:15AM 33.6394 -117.1225 90° East 466 536 25,200 1,080 Climbing Los Angeles Center
12:16AM 33.6367 -116.9656 91° East 470 541 26,300 1,080 Climbing Los Angeles Center
12:17AM 33.6128 -116.7856 99° East 478 550 27,500 1,020 Climbing Los Angeles Center
12:18AM 33.5922 -116.6239 99° East 486 559 28,400 720 Climbing Los Angeles Center
12:19AM 33.5719 -116.4606 98° East 492 566 29,000 720 Climbing Los Angeles Center
12:20AM 33.5511 -116.2958 99° East 497 572 29,900 780 Climbing Los Angeles Center
12:21AM 33.5286 -116.1286 99° East 503 579 30,600 780 Climbing Los Angeles Center
12:22AM 33.5061 -115.9606 99° East 508 585 31,600 840 Climbing Los Angeles Center
12:23AM 33.4833 -115.7961 99° East 502 578 32,400 720 Climbing Los Angeles Center
12:24AM 33.4606 -115.6306 99° East 503 579 33,100 540 Climbing Los Angeles Center
12:25AM 33.4375 -115.4642 99° East 505 581 33,600 480 Climbing Los Angeles Center
12:26AM 33.4142 -115.2961 99° East 509 586 34,100 540 Climbing Los Angeles Center
12:27AM 33.3892 -115.1283 100° East 511 588 34,800 720 Climbing Los Angeles Center
12:28AM 33.3614 -114.9303 99° East 506 582 35,600 720 Climbing Los Angeles Center
12:29AM 33.3397 -114.7642 99° East 506 582 36,300 660 Climbing Los Angeles Center
12:30AM 33.3172 -114.6036 99° East 491 565 37,000 660 Climbing Los Angeles Center
12:31AM 33.2947 -114.4444 100° East 483 556 37,700 660 Climbing Los Angeles Center
12:32AM 33.2714 -114.2717 99° East 482 555 38,500 600 Climbing Albuquerque Center
12:33AM 33.2492 -114.1181 100° East 474 545 39,000 240 Climbing Albuquerque Center
12:34AM 33.2244 -113.9636 101° East 474 545 39,000  Level Albuquerque Center
12:35AM 33.2011 -113.8083 100° East 476 548 39,000  Level Albuquerque Center
12:36AM 33.1758 -113.6511 101° East 480 552 39,000  Level Albuquerque Center
12:37AM 33.1528 -113.4933 100° East 481 554 39,000  Level Albuquerque Center
12:38AM 33.1283 -113.3336 100° East 486 559 39,000  Level Albuquerque Center
12:39AM 33.1036 -113.1739 100° East 488 562 39,000  Level Albuquerque Center
12:40AM 33.0778 -113.0150 101° East 488 562 39,000  Level Albuquerque Center
12:41AM 33.0528 -112.8547 100° East 489 563 39,000  Level Albuquerque Center
12:42AM 33.0267 -112.6942 101° East 491 565 39,000  Level Albuquerque Center
12:43AM 33.0003 -112.5350 101° East 488 562 39,000  Level Albuquerque Center
12:44AM 32.9736 -112.3744 101° East 491 565 39,000  Level Albuquerque Center
12:45AM 32.9450 -112.1994 101° East 492 566 39,000  Level Albuquerque Center
12:46AM 32.9194 -112.0408 101° East 492 566 39,000  Level Albuquerque Center
12:47AM 32.8933 -111.8844 101° East 487 560 39,000  Level Albuquerque Center
12:48AM 32.8672 -111.7289 101° East 483 556 39,000  Level Albuquerque Center
12:49AM 32.8408 -111.5731 101° East 483 556 39,000  Level Albuquerque Center
12:50AM 32.8142 -111.4192 102° East 480 552 39,000  Level Albuquerque Center
12:51AM 32.7878 -111.2628 101° East 484 557 39,000  Level Albuquerque Center
12:52AM 32.7547 -111.0744 102° East 487 560 39,000  Level Albuquerque Center
12:53AM 32.7283 -110.9164 101° East 489 563 39,000  Level Albuquerque Center
12:54AM 32.6992 -110.7586 102° East 491 565 39,000  Level Albuquerque Center
12:55AM 32.6744 -110.6208 102° East 489 563 39,000  Level Albuquerque Center
12:56AM 32.6425 -110.4450 102° East 489 563 39,000  Level Albuquerque Center
12:57AM 32.6125 -110.2808 102° East 482 555 39,000  Level Albuquerque Center
12:59AM 32.5850 -110.1261 102° East 483 556 39,000  Level Albuquerque Center
01:00AM 32.5567 -109.9717 102° East 485 558 39,000  Level Albuquerque Center
01:01AM 32.5208 -109.7861 103° East 487 560 39,000  Level Albuquerque Center
01:02AM 32.4906 -109.6292 103° East 492 566 39,000  Level Albuquerque Center
01:03AM 32.4608 -109.4761 103° East 488 562 39,000  Level Albuquerque Center
01:04AM 32.4342 -109.3242 102° East 481 554 39,000  Level Albuquerque Center
01:05AM 32.4047 -109.1711 103° East 482 555 39,000  Level Albuquerque Center
01:06AM 32.3694 -108.9875 103° East 484 557 39,000  Level Albuquerque Center
01:07AM 32.3389 -108.8325 103° East 489 563 39,000  Level Albuquerque Center
01:08AM 32.3094 -108.6781 103° East 489 563 39,000  Level Albuquerque Center
01:09AM 32.2786 -108.5242 103° East 489 563 39,000 -60 Level Albuquerque Center
01:10AM 32.2492 -108.3792 103° East 493 567 38,900  Descending Albuquerque Center
01:11AM 32.2125 -108.1883 103° East 498 573 39,000  Climbing Albuquerque Center
01:12AM 32.1803 -108.0294 103° East 500 575 39,000  Level Albuquerque Center
01:13AM 32.1478 -107.8700 103° East 501 577 39,000 -60 Level Albuquerque Center
01:14AM 32.1164 -107.7111 103° East 502 578 38,900  Descending Albuquerque Center
01:15AM 32.0844 -107.5544 103° East 498 573 39,000  Climbing Albuquerque Center
01:16AM 32.0533 -107.3975 103° East 497 572 39,000  Level Albuquerque Center
01:17AM 32.0203 -107.2403 104° East 499 574 39,000 -60 Level Albuquerque Center
01:18AM 31.9878 -107.0842 104° East 497 572 38,900  Descending Albuquerque Center
01:19AM 31.9558 -106.9278 103° East 496 571 39,000  Climbing Albuquerque Center
01:20AM 31.9217 -106.7733 105° East 494 568 39,000  Level Albuquerque Center
01:21AM 31.8883 -106.6172 104° East 495 570 39,000  Level Albuquerque Center
01:22AM 31.8503 -106.4358 104° East 501 577 39,000  Level Albuquerque Center
01:23AM 31.8150 -106.2769 105° East 503 579 39,000  Level Albuquerque Center
01:24AM 31.7756 -106.1194 106° East 503 579 39,000  Level Albuquerque Center
01:25AM 31.7344 -105.9603 107° East 508 585 39,000  Level Albuquerque Center
01:26AM 31.6944 -105.8000 106° East 509 586 39,000 -60 Level Albuquerque Center
01:27AM 31.6550 -105.6403 106° East 510 587 38,900  Descending Albuquerque Center
01:28AM 31.6144 -105.4808 107° East 510 587 39,000  Climbing Albuquerque Center
01:29AM 31.5742 -105.3206 106° East 510 587 39,000  Level Albuquerque Center
01:30AM 31.5328 -105.1606 107° East 510 587 39,000  Level Albuquerque Center
01:31AM 31.4925 -105.0000 106° East 511 588 39,000  Level Albuquerque Center
01:32AM 31.4511 -104.8406 107° East 511 588 39,000  Level Albuquerque Center
01:33AM 31.4108 -104.6819 107° East 509 586 39,000  Level Albuquerque Center
01:34AM 31.3697 -104.5250 107° East 505 581 39,000  Level Albuquerque Center
01:35AM 31.3303 -104.3694 106° East 499 574 39,000  Level Albuquerque Center
01:36AM 31.2878 -104.2111 107° East 506 582 39,000  Level Albuquerque Center
01:37AM 31.2458 -104.0511 107° East 512 589 39,000  Level Albuquerque Center
01:38AM 31.2028 -103.8919 108° East 513 590 39,000  Level Albuquerque Center
01:39AM 31.1508 -103.7064 108° East 516 594 39,000  Level Albuquerque Center
01:40AM 31.1072 -103.5467 108° East 517 595 39,000  Level Albuquerque Center
01:41AM 31.0631 -103.3883 108° East 516 594 39,000  Level Albuquerque Center
01:42AM 31.0200 -103.2289 107° East 516 594 39,000  Level Albuquerque Center
01:43AM 30.9775 -103.0711 107° East 514 592 39,000  Level Albuquerque Center
01:44AM 30.9336 -102.9139 108° East 513 590 39,000  Level Albuquerque Center
01:45AM 30.8906 -102.7556 108° East 516 594 39,000  Level Albuquerque Center
01:46AM 30.8481 -102.5978 107° East 516 594 39,000  Level Albuquerque Center
01:47AM 30.8047 -102.4403 108° East 516 594 39,000  Level Albuquerque Center
01:48AM 30.7625 -102.2828 107° East 516 594 39,000  Level Albuquerque Center
01:49AM 30.7200 -102.1272 108° East 513 590 39,000  Level Albuquerque Center
01:50AM 30.6683 -101.9414 108° East 509 586 39,000  Level Albuquerque Center
01:51AM 30.6242 -101.7858 108° East 509 586 39,000  Level Albuquerque Center
01:52AM 30.5897 -101.6594 108° East 512 589 39,000 -60 Level Houston Center
01:53AM 30.5458 -101.5039 108° East 511 588 38,900  Descending Houston Center
01:54AM 30.5014 -101.3492 108° East 514 592 39,000  Climbing Houston Center
01:55AM 30.4572 -101.1914 108° East 514 592 38,900  Descending Houston Center
01:56AM 30.4122 -101.0331 108° East 517 595 39,000  Climbing Houston Center
01:57AM 30.3650 -100.8753 109° East 518 596 39,000  Level Houston Center
01:58AM 30.3192 -100.7142 108° East 523 602 39,000 -60 Level Houston Center
01:59AM 30.2731 -100.5522 108° East 527 606 38,900  Descending Houston Center
02:00AM 30.2258 -100.3908 109° East 526 605 39,000  Climbing Houston Center
02:01AM 30.1781 -100.2256 108° East 528 608 39,000  Level Houston Center
02:02AM 30.1294 -100.0586 109° East 534 615 39,000  Level Houston Center
02:03AM 30.0806 -99.8953 109° East 534 615 39,000 -60 Level Houston Center
02:04AM 30.0331 -99.7361 109° East 524 603 38,900 -60 Descending Houston Center
02:05AM 29.9858 -99.5803 109° East 516 594 38,900  Level Houston Center
02:06AM 29.9392 -99.4236 109° East 515 593 39,000  Climbing Houston Center
02:07AM 29.8906 -99.2667 110° East 518 596 39,000 -60 Level Houston Center
02:08AM 29.8439 -99.1097 109° East 520 598 38,900  Descending Houston Center
02:09AM 29.7894 -98.9311 109° East 521 600 39,000  Climbing Houston Center
02:10AM 29.7408 -98.7747 110° East 521 600 39,000  Level Houston Center
02:11AM 29.6922 -98.6178 110° East 520 598 39,000  Level Houston Center
02:12AM 29.6553 -98.4853 108° East 522 601 39,000  Level Houston Center
02:13AM 29.6472 -98.2808 93° East 542 624 39,000  Level Houston Center
02:14AM 29.6389 -98.1100 93° East 536 617 39,000  Level Houston Center
02:15AM 29.6317 -97.9383 93° East 536 617 39,000  Level Houston Center
02:16AM 29.6256 -97.7969 93° East 544 626 39,000 -60 Level Houston Center
02:17AM 29.6183 -97.6217 93° East 548 631 38,900 -300 Descending Houston Center
02:18AM 29.6097 -97.4475 93° East 546 628 38,400 -1,800 Descending Houston Center
02:19AM 29.6031 -97.2761 93° East 537 618 35,300 -3,300 Descending Houston Center
02:20AM 29.5933 -97.1031 94° East 540 621 31,800 -3,840 Descending Houston Center
02:21AM 29.5844 -96.9136 93° East 533 613 27,900 -3,300 Descending Houston Center
02:22AM 29.5761 -96.7847 94° East 494 568 26,000 -3,060 Descending Houston Center
02:23AM 29.5694 -96.6247 93° East 473 544 22,300 -3,540 Descending Houston Center
02:24AM 29.5628 -96.4936 93° East 421 484 18,900 -3,480 Descending Houston Center
02:25AM 29.5878 -96.3661 77° East 412 474 15,300 -2,580 Descending Houston Center
02:26AM 29.6500 -96.2606 56° Northeast 382 440 13,700 -1,560 Descending Houston Center
02:27AM 29.7106 -96.1578 56° Northeast 355 409 12,000 -1,500 Descending Houston Center
02:28AM 29.7678 -96.0647 55° Northeast 334 384 10,500 -1,500 Descending Houston Center
02:29AM 29.8192 -95.9794 55° Northeast 319 367 9,000 -1,500 Descending Houston Center
02:30AM 29.8664 -95.8969 57° Northeast 304 350 7,500 -1,560 Descending Houston Center
02:31AM 29.9119 -95.8194 56° Northeast 297 342 5,900 -1,440 Descending Houston Center
02:32AM 29.9558 -95.7444 56° Northeast 282 325 4,600 -960 Descending Houston Center
02:33AM 29.9881 -95.6806 60° Northeast 241 277 4,100 -360 Descending Houston Center
02:34AM 29.9911 -95.5981 88° East 255 293 4,000 -480 Descending Houston Center
02:35AM 29.9925 -95.5208 89° East 218 251 3,100 -960 Descending Houston Center
02:36AM 29.9914 -95.4606 91° East 180 207 2,000 -1,140 Descending Houston Center